sensor_id;sensor_type;location;lat;lon;timestamp;temperature;humidity
21312;DHT22;18076;52.154;10.570;2022-10-17T00:01:28;13.70;99.90
21312;DHT22;18076;52.154;10.570;2022-10-17T00:03:54;13.70;99.90
21312;DHT22;18076;52.154;10.570;2022-10-17T00:06:19;13.70;99.90
21312;DHT22;18076;52.154;10.570;2022-10-17T00:08:45;13.70;99.90
21312;DHT22;18076;52.154;10.570;2022-10-17T00:11:18;13.70;99.90
21312;DHT22;18076;52.154;10.570;2022-10-17T00:13:45;13.70;99.90
21312;DHT22;18076;52.154;10.570;2022-10-17T00:16:10;13.60;99.90
21312;DHT22;18076;52.154;10.570;2022-10-17T00:18:36;13.70;99.90
21312;DHT22;18076;52.154;10.570;2022-10-17T00:21:01;13.70;99.90
21312;DHT22;18076;52.154;10.570;2022-10-17T00:23:27;13.70;99.90
21312;DHT22;18076;52.154;10.570;2022-10-17T00:25:58;13.80;99.90
21312;DHT22;18076;52.154;10.570;2022-10-17T00:28:24;13.80;99.90
21312;DHT22;18076;52.154;10.570;2022-10-17T00:30:59;13.90;99.90
21312;DHT22;18076;52.154;10.570;2022-10-17T00:33:25;13.90;99.90
21312;DHT22;18076;52.154;10.570;2022-10-17T00:35:53;13.90;99.90
21312;DHT22;18076;52.154;10.570;2022-10-17T00:38:25;14.00;99.90
21312;DHT22;18076;52.154;10.570;2022-10-17T00:40:51;13.90;99.90
21312;DHT22;18076;52.154;10.570;2022-10-17T00:43:17;14.00;99.90
21312;DHT22;18076;52.154;10.570;2022-10-17T00:45:42;14.00;99.90
21312;DHT22;18076;52.154;10.570;2022-10-17T00:48:08;14.00;99.90
21312;DHT22;18076;52.154;10.570;2022-10-17T00:50:35;14.00;99.90
21312;DHT22;18076;52.154;10.570;2022-10-17T00:53:01;14.00;99.90
21312;DHT22;18076;52.154;10.570;2022-10-17T00:55:32;14.00;99.90
21312;DHT22;18076;52.154;10.570;2022-10-17T00:57:59;14.00;99.90
21312;DHT22;18076;52.154;10.570;2022-10-17T01:00:26;14.00;99.90
21312;DHT22;18076;52.154;10.570;2022-10-17T01:02:51;14.10;99.90
21312;DHT22;18076;52.154;10.570;2022-10-17T01:05:17;14.10;99.90
21312;DHT22;18076;52.154;10.570;2022-10-17T01:07:43;14.20;99.90
21312;DHT22;18076;52.154;10.570;2022-10-17T01:10:10;14.20;99.90
21312;DHT22;18076;52.154;10.570;2022-10-17T01:15:13;14.30;99.90
21312;DHT22;18076;52.154;10.570;2022-10-17T01:25:33;14.20;99.90
21312;DHT22;18076;52.154;10.570;2022-10-17T01:28:15;14.20;99.90
21312;DHT22;18076;52.154;10.570;2022-10-17T01:31:01;14.20;99.90
21312;DHT22;18076;52.154;10.570;2022-10-17T01:33:45;14.20;99.90
21312;DHT22;18076;52.154;10.570;2022-10-17T01:36:14;14.20;99.90
21312;DHT22;18076;52.154;10.570;2022-10-17T01:39:06;14.10;99.90
21312;DHT22;18076;52.154;10.570;2022-10-17T01:42:09;14.10;99.90
21312;DHT22;18076;52.154;10.570;2022-10-17T01:47:05;14.10;99.90
21312;DHT22;18076;52.154;10.570;2022-10-17T01:49:32;14.10;99.90
21312;DHT22;18076;52.154;10.570;2022-10-17T01:52:03;14.20;99.90
21312;DHT22;18076;52.154;10.570;2022-10-17T01:54:39;14.20;99.90
21312;DHT22;18076;52.154;10.570;2022-10-17T01:57:07;14.10;99.90
21312;DHT22;18076;52.154;10.570;2022-10-17T01:59:38;14.00;99.90
21312;DHT22;18076;52.154;10.570;2022-10-17T02:02:05;14.10;99.90
21312;DHT22;18076;52.154;10.570;2022-10-17T02:04:31;14.10;99.90
21312;DHT22;18076;52.154;10.570;2022-10-17T02:07:04;14.20;99.90
21312;DHT22;18076;52.154;10.570;2022-10-17T02:09:30;14.10;99.90
21312;DHT22;18076;52.154;10.570;2022-10-17T02:14:40;14.10;99.90
21312;DHT22;18076;52.154;10.570;2022-10-17T02:17:12;14.10;99.90
21312;DHT22;18076;52.154;10.570;2022-10-17T02:27:11;13.90;99.90
21312;DHT22;18076;52.154;10.570;2022-10-17T02:29:48;13.80;99.90
21312;DHT22;18076;52.154;10.570;2022-10-17T02:32:22;13.80;99.90
21312;DHT22;18076;52.154;10.570;2022-10-17T02:34:49;13.80;99.90
21312;DHT22;18076;52.154;10.570;2022-10-17T02:37:18;13.90;99.90
21312;DHT22;18076;52.154;10.570;2022-10-17T02:39:46;13.90;99.90
21312;DHT22;18076;52.154;10.570;2022-10-17T02:42:12;13.80;99.90
21312;DHT22;18076;52.154;10.570;2022-10-17T02:44:39;13.70;99.90
21312;DHT22;18076;52.154;10.570;2022-10-17T02:47:20;13.60;99.90
21312;DHT22;18076;52.154;10.570;2022-10-17T02:49:49;13.50;99.90
21312;DHT22;18076;52.154;10.570;2022-10-17T02:52:21;13.40;99.90
21312;DHT22;18076;52.154;10.570;2022-10-17T02:54:52;13.40;99.90
21312;DHT22;18076;52.154;10.570;2022-10-17T02:57:38;13.30;99.90
21312;DHT22;18076;52.154;10.570;2022-10-17T03:00:06;13.20;99.90
21312;DHT22;18076;52.154;10.570;2022-10-17T03:05:04;13.10;99.90
21312;DHT22;18076;52.154;10.570;2022-10-17T03:07:30;13.10;99.90
21312;DHT22;18076;52.154;10.570;2022-10-17T03:09:55;13.00;99.90
21312;DHT22;18076;52.154;10.570;2022-10-17T03:12:21;13.00;99.90
21312;DHT22;18076;52.154;10.570;2022-10-17T03:14:46;12.90;99.90
21312;DHT22;18076;52.154;10.570;2022-10-17T03:17:12;12.90;99.90
21312;DHT22;18076;52.154;10.570;2022-10-17T03:19:37;12.80;99.90
21312;DHT22;18076;52.154;10.570;2022-10-17T03:22:03;12.80;99.90
21312;DHT22;18076;52.154;10.570;2022-10-17T03:24:28;12.80;99.90
21312;DHT22;18076;52.154;10.570;2022-10-17T03:26:54;12.80;99.90
21312;DHT22;18076;52.154;10.570;2022-10-17T03:29:19;12.70;99.90
21312;DHT22;18076;52.154;10.570;2022-10-17T03:31:45;12.70;99.90
21312;DHT22;18076;52.154;10.570;2022-10-17T03:34:10;12.80;99.90
21312;DHT22;18076;52.154;10.570;2022-10-17T03:36:36;12.80;99.90
21312;DHT22;18076;52.154;10.570;2022-10-17T03:39:02;12.80;99.90
21312;DHT22;18076;52.154;10.570;2022-10-17T03:41:27;12.80;99.90
21312;DHT22;18076;52.154;10.570;2022-10-17T03:43:53;12.80;99.90
21312;DHT22;18076;52.154;10.570;2022-10-17T03:46:19;12.80;99.90
21312;DHT22;18076;52.154;10.570;2022-10-17T03:48:44;12.80;99.90
21312;DHT22;18076;52.154;10.570;2022-10-17T03:51:10;12.80;99.90
21312;DHT22;18076;52.154;10.570;2022-10-17T03:53:35;12.80;99.90
21312;DHT22;18076;52.154;10.570;2022-10-17T03:56:34;12.80;99.90
21312;DHT22;18076;52.154;10.570;2022-10-17T03:58:53;12.80;99.90
21312;DHT22;18076;52.154;10.570;2022-10-17T04:01:19;12.80;99.90
21312;DHT22;18076;52.154;10.570;2022-10-17T04:03:47;12.80;99.90
21312;DHT22;18076;52.154;10.570;2022-10-17T04:06:13;12.90;99.90
21312;DHT22;18076;52.154;10.570;2022-10-17T04:08:38;12.90;99.90
21312;DHT22;18076;52.154;10.570;2022-10-17T04:11:05;12.90;99.90
21312;DHT22;18076;52.154;10.570;2022-10-17T04:13:31;12.90;99.90
21312;DHT22;18076;52.154;10.570;2022-10-17T04:15:57;12.90;99.90
21312;DHT22;18076;52.154;10.570;2022-10-17T04:18:24;12.90;99.90
21312;DHT22;18076;52.154;10.570;2022-10-17T04:20:50;13.00;99.90
21312;DHT22;18076;52.154;10.570;2022-10-17T04:23:16;13.10;99.90
21312;DHT22;18076;52.154;10.570;2022-10-17T04:25:41;13.10;99.90
21312;DHT22;18076;52.154;10.570;2022-10-17T04:28:07;13.10;99.90
21312;DHT22;18076;52.154;10.570;2022-10-17T04:30:32;13.10;99.90
21312;DHT22;18076;52.154;10.570;2022-10-17T04:32:58;13.10;99.90
21312;DHT22;18076;52.154;10.570;2022-10-17T04:35:24;13.10;99.90
21312;DHT22;18076;52.154;10.570;2022-10-17T04:37:49;13.10;99.90
21312;DHT22;18076;52.154;10.570;2022-10-17T04:40:15;13.10;99.90
21312;DHT22;18076;52.154;10.570;2022-10-17T04:42:40;13.10;99.90
21312;DHT22;18076;52.154;10.570;2022-10-17T04:45:06;13.10;99.90
21312;DHT22;18076;52.154;10.570;2022-10-17T04:47:31;13.00;99.90
21312;DHT22;18076;52.154;10.570;2022-10-17T04:49:57;13.00;99.90
21312;DHT22;18076;52.154;10.570;2022-10-17T04:52:22;12.90;99.90
21312;DHT22;18076;52.154;10.570;2022-10-17T04:54:49;12.80;99.90
21312;DHT22;18076;52.154;10.570;2022-10-17T04:57:15;12.80;99.90
21312;DHT22;18076;52.154;10.570;2022-10-17T04:59:40;12.70;99.90
21312;DHT22;18076;52.154;10.570;2022-10-17T05:02:06;12.70;99.90
21312;DHT22;18076;52.154;10.570;2022-10-17T05:04:31;12.70;99.90
21312;DHT22;18076;52.154;10.570;2022-10-17T05:06:57;12.70;99.90
21312;DHT22;18076;52.154;10.570;2022-10-17T05:09:22;12.70;99.90
21312;DHT22;18076;52.154;10.570;2022-10-17T05:11:48;12.60;99.90
21312;DHT22;18076;52.154;10.570;2022-10-17T05:14:13;12.50;99.90
21312;DHT22;18076;52.154;10.570;2022-10-17T05:16:39;12.50;99.90
21312;DHT22;18076;52.154;10.570;2022-10-17T05:19:05;12.50;99.90
21312;DHT22;18076;52.154;10.570;2022-10-17T05:21:30;12.50;99.90
21312;DHT22;18076;52.154;10.570;2022-10-17T05:23:56;12.50;99.90
21312;DHT22;18076;52.154;10.570;2022-10-17T05:26:22;12.40;99.90
21312;DHT22;18076;52.154;10.570;2022-10-17T05:28:47;12.40;99.90
21312;DHT22;18076;52.154;10.570;2022-10-17T05:31:13;12.30;99.90
21312;DHT22;18076;52.154;10.570;2022-10-17T05:33:39;12.30;99.90
21312;DHT22;18076;52.154;10.570;2022-10-17T05:36:05;12.30;99.90
21312;DHT22;18076;52.154;10.570;2022-10-17T05:38:31;12.20;99.90
21312;DHT22;18076;52.154;10.570;2022-10-17T05:41:00;12.20;99.90
21312;DHT22;18076;52.154;10.570;2022-10-17T05:43:25;12.20;99.90
21312;DHT22;18076;52.154;10.570;2022-10-17T05:45:51;12.20;99.90
21312;DHT22;18076;52.154;10.570;2022-10-17T05:48:17;12.20;99.90
21312;DHT22;18076;52.154;10.570;2022-10-17T05:50:42;12.20;99.90
21312;DHT22;18076;52.154;10.570;2022-10-17T05:53:08;12.30;99.90
21312;DHT22;18076;52.154;10.570;2022-10-17T05:55:34;12.40;99.90
21312;DHT22;18076;52.154;10.570;2022-10-17T05:57:59;12.50;99.90
21312;DHT22;18076;52.154;10.570;2022-10-17T06:00:25;12.60;99.90
21312;DHT22;18076;52.154;10.570;2022-10-17T06:02:51;12.60;99.90
21312;DHT22;18076;52.154;10.570;2022-10-17T06:05:16;12.60;99.90
21312;DHT22;18076;52.154;10.570;2022-10-17T06:07:42;12.70;99.90
21312;DHT22;18076;52.154;10.570;2022-10-17T06:10:08;12.70;99.90
21312;DHT22;18076;52.154;10.570;2022-10-17T06:12:34;12.70;99.90
21312;DHT22;18076;52.154;10.570;2022-10-17T06:14:59;12.70;99.90
21312;DHT22;18076;52.154;10.570;2022-10-17T06:17:25;12.70;99.90
21312;DHT22;18076;52.154;10.570;2022-10-17T06:19:50;12.80;99.90
21312;DHT22;18076;52.154;10.570;2022-10-17T06:22:16;12.80;99.90
21312;DHT22;18076;52.154;10.570;2022-10-17T06:24:41;12.90;99.90
21312;DHT22;18076;52.154;10.570;2022-10-17T06:27:07;13.10;99.90
21312;DHT22;18076;52.154;10.570;2022-10-17T06:29:33;13.20;99.90
21312;DHT22;18076;52.154;10.570;2022-10-17T06:31:59;13.10;99.90
21312;DHT22;18076;52.154;10.570;2022-10-17T06:34:24;13.10;99.90
21312;DHT22;18076;52.154;10.570;2022-10-17T06:36:50;13.10;99.90
21312;DHT22;18076;52.154;10.570;2022-10-17T06:39:16;13.10;99.90
21312;DHT22;18076;52.154;10.570;2022-10-17T06:41:42;13.10;99.90
21312;DHT22;18076;52.154;10.570;2022-10-17T06:44:09;13.10;99.90
21312;DHT22;18076;52.154;10.570;2022-10-17T06:46:38;13.00;99.90
21312;DHT22;18076;52.154;10.570;2022-10-17T06:49:04;13.00;99.90
21312;DHT22;18076;52.154;10.570;2022-10-17T06:51:30;13.00;99.90
21312;DHT22;18076;52.154;10.570;2022-10-17T06:53:56;13.00;99.90
21312;DHT22;18076;52.154;10.570;2022-10-17T06:56:22;13.00;99.90
21312;DHT22;18076;52.154;10.570;2022-10-17T06:58:47;13.10;99.90
21312;DHT22;18076;52.154;10.570;2022-10-17T07:01:15;13.20;99.90
21312;DHT22;18076;52.154;10.570;2022-10-17T07:03:40;13.30;99.90
21312;DHT22;18076;52.154;10.570;2022-10-17T07:06:08;13.30;99.90
21312;DHT22;18076;52.154;10.570;2022-10-17T07:08:35;13.40;99.90
21312;DHT22;18076;52.154;10.570;2022-10-17T07:11:11;13.60;99.90
21312;DHT22;18076;52.154;10.570;2022-10-17T07:13:37;13.60;99.90
21312;DHT22;18076;52.154;10.570;2022-10-17T07:16:02;13.70;99.90
21312;DHT22;18076;52.154;10.570;2022-10-17T07:18:28;13.90;99.90
21312;DHT22;18076;52.154;10.570;2022-10-17T07:20:53;14.00;99.90
21312;DHT22;18076;52.154;10.570;2022-10-17T07:23:19;14.20;99.90
21312;DHT22;18076;52.154;10.570;2022-10-17T07:25:44;14.30;99.90
21312;DHT22;18076;52.154;10.570;2022-10-17T07:28:10;14.60;99.90
21312;DHT22;18076;52.154;10.570;2022-10-17T07:30:35;14.90;99.90
21312;DHT22;18076;52.154;10.570;2022-10-17T07:33:01;15.20;99.90
21312;DHT22;18076;52.154;10.570;2022-10-17T07:35:26;15.60;99.90
21312;DHT22;18076;52.154;10.570;2022-10-17T07:37:52;15.70;99.90
21312;DHT22;18076;52.154;10.570;2022-10-17T07:40:17;15.80;99.90
21312;DHT22;18076;52.154;10.570;2022-10-17T07:42:43;15.70;99.90
21312;DHT22;18076;52.154;10.570;2022-10-17T07:45:09;15.60;99.90
21312;DHT22;18076;52.154;10.570;2022-10-17T07:47:34;15.60;99.90
21312;DHT22;18076;52.154;10.570;2022-10-17T07:50:00;15.60;99.90
21312;DHT22;18076;52.154;10.570;2022-10-17T07:52:26;15.70;99.90
21312;DHT22;18076;52.154;10.570;2022-10-17T07:54:52;15.80;99.90
21312;DHT22;18076;52.154;10.570;2022-10-17T07:57:17;15.90;99.90
21312;DHT22;18076;52.154;10.570;2022-10-17T07:59:43;16.10;99.90
21312;DHT22;18076;52.154;10.570;2022-10-17T08:02:11;16.50;99.90
21312;DHT22;18076;52.154;10.570;2022-10-17T08:04:38;17.40;99.90
21312;DHT22;18076;52.154;10.570;2022-10-17T08:07:04;18.30;99.90
21312;DHT22;18076;52.154;10.570;2022-10-17T08:09:29;19.10;99.90
21312;DHT22;18076;52.154;10.570;2022-10-17T08:11:55;19.40;99.90
21312;DHT22;18076;52.154;10.570;2022-10-17T08:14:20;19.60;99.90
21312;DHT22;18076;52.154;10.570;2022-10-17T08:16:46;20.10;99.90
21312;DHT22;18076;52.154;10.570;2022-10-17T08:19:11;20.70;99.90
21312;DHT22;18076;52.154;10.570;2022-10-17T08:21:37;20.90;99.90
21312;DHT22;18076;52.154;10.570;2022-10-17T08:24:03;21.10;99.90
21312;DHT22;18076;52.154;10.570;2022-10-17T08:26:29;21.20;99.90
21312;DHT22;18076;52.154;10.570;2022-10-17T08:28:54;21.00;99.90
21312;DHT22;18076;52.154;10.570;2022-10-17T08:31:20;20.70;99.90
21312;DHT22;18076;52.154;10.570;2022-10-17T08:33:46;20.60;99.90
21312;DHT22;18076;52.154;10.570;2022-10-17T08:36:13;20.50;99.90
21312;DHT22;18076;52.154;10.570;2022-10-17T08:38:38;20.60;99.90
21312;DHT22;18076;52.154;10.570;2022-10-17T08:46:34;20.90;99.90
21312;DHT22;18076;52.154;10.570;2022-10-17T08:49:00;21.20;99.90
21312;DHT22;18076;52.154;10.570;2022-10-17T08:51:27;21.50;99.90
21312;DHT22;18076;52.154;10.570;2022-10-17T08:56:23;22.30;99.90
21312;DHT22;18076;52.154;10.570;2022-10-17T08:58:49;22.60;99.90
21312;DHT22;18076;52.154;10.570;2022-10-17T09:06:31;23.20;99.90
21312;DHT22;18076;52.154;10.570;2022-10-17T09:09:21;23.50;99.90
21312;DHT22;18076;52.154;10.570;2022-10-17T09:22:20;24.10;99.90
21312;DHT22;18076;52.154;10.570;2022-10-17T09:24:58;24.30;99.90
21312;DHT22;18076;52.154;10.570;2022-10-17T09:29:53;23.70;99.90
21312;DHT22;18076;52.154;10.570;2022-10-17T09:32:23;23.70;99.90
21312;DHT22;18076;52.154;10.570;2022-10-17T09:34:50;23.60;99.90
21312;DHT22;18076;52.154;10.570;2022-10-17T09:37:16;23.50;99.90
21312;DHT22;18076;52.154;10.570;2022-10-17T09:39:42;23.30;99.90
21312;DHT22;18076;52.154;10.570;2022-10-17T09:42:12;23.00;99.90
21312;DHT22;18076;52.154;10.570;2022-10-17T09:44:46;22.80;99.90
21312;DHT22;18076;52.154;10.570;2022-10-17T09:49:57;22.80;99.90
21312;DHT22;18076;52.154;10.570;2022-10-17T09:52:30;22.70;99.90
21312;DHT22;18076;52.154;10.570;2022-10-17T09:55:02;22.60;99.90
21312;DHT22;18076;52.154;10.570;2022-10-17T09:57:29;22.60;99.90
21312;DHT22;18076;52.154;10.570;2022-10-17T10:00:19;22.60;99.90
21312;DHT22;18076;52.154;10.570;2022-10-17T10:02:45;22.60;99.90
21312;DHT22;18076;52.154;10.570;2022-10-17T10:05:17;22.70;99.90
21312;DHT22;18076;52.154;10.570;2022-10-17T10:07:45;22.80;99.90
21312;DHT22;18076;52.154;10.570;2022-10-17T10:10:25;22.90;99.90
21312;DHT22;18076;52.154;10.570;2022-10-17T10:13:02;23.10;99.90
21312;DHT22;18076;52.154;10.570;2022-10-17T10:15:32;23.10;99.90
21312;DHT22;18076;52.154;10.570;2022-10-17T10:17:58;23.30;99.90
21312;DHT22;18076;52.154;10.570;2022-10-17T10:25:33;23.40;99.90
21312;DHT22;18076;52.154;10.570;2022-10-17T10:27:59;23.30;99.90
21312;DHT22;18076;52.154;10.570;2022-10-17T10:30:27;23.30;99.90
21312;DHT22;18076;52.154;10.570;2022-10-17T10:32:53;23.20;99.90
21312;DHT22;18076;52.154;10.570;2022-10-17T10:35:31;23.10;99.90
21312;DHT22;18076;52.154;10.570;2022-10-17T10:37:57;22.90;99.90
21312;DHT22;18076;52.154;10.570;2022-10-17T10:40:36;22.70;99.90
21312;DHT22;18076;52.154;10.570;2022-10-17T10:43:03;22.60;99.90
21312;DHT22;18076;52.154;10.570;2022-10-17T10:48:04;22.70;99.90
21312;DHT22;18076;52.154;10.570;2022-10-17T10:55:36;23.40;99.90
21312;DHT22;18076;52.154;10.570;2022-10-17T10:58:08;23.40;99.90
21312;DHT22;18076;52.154;10.570;2022-10-17T11:00:36;23.40;99.90
21312;DHT22;18076;52.154;10.570;2022-10-17T11:05:42;24.20;99.90
21312;DHT22;18076;52.154;10.570;2022-10-17T11:15:41;23.80;99.90
21312;DHT22;18076;52.154;10.570;2022-10-17T11:18:51;23.90;99.90
21312;DHT22;18076;52.154;10.570;2022-10-17T11:23:32;24.20;99.90
21312;DHT22;18076;52.154;10.570;2022-10-17T11:26:01;24.30;99.90
21312;DHT22;18076;52.154;10.570;2022-10-17T11:28:27;24.10;99.90
21312;DHT22;18076;52.154;10.570;2022-10-17T11:31:02;24.00;99.90
21312;DHT22;18076;52.154;10.570;2022-10-17T11:33:29;24.00;99.90
21312;DHT22;18076;52.154;10.570;2022-10-17T11:36:00;23.80;99.90
21312;DHT22;18076;52.154;10.570;2022-10-17T11:39:00;23.70;99.90
21312;DHT22;18076;52.154;10.570;2022-10-17T11:41:39;23.70;99.90
21312;DHT22;18076;52.154;10.570;2022-10-17T11:44:13;23.70;99.90
21312;DHT22;18076;52.154;10.570;2022-10-17T11:46:39;23.80;99.90
21312;DHT22;18076;52.154;10.570;2022-10-17T11:49:16;23.80;99.90
21312;DHT22;18076;52.154;10.570;2022-10-17T11:54:58;24.10;99.90
21312;DHT22;18076;52.154;10.570;2022-10-17T12:02:36;24.80;99.90
21312;DHT22;18076;52.154;10.570;2022-10-17T12:07:54;25.40;99.90
21312;DHT22;18076;52.154;10.570;2022-10-17T12:10:36;25.40;99.90
21312;DHT22;18076;52.154;10.570;2022-10-17T12:15:47;25.40;99.90
21312;DHT22;18076;52.154;10.570;2022-10-17T12:18:14;25.50;99.90
21312;DHT22;18076;52.154;10.570;2022-10-17T12:20:40;25.80;99.90
21312;DHT22;18076;52.154;10.570;2022-10-17T12:25:35;25.90;99.90
21312;DHT22;18076;52.154;10.570;2022-10-17T12:31:07;26.20;99.90
21312;DHT22;18076;52.154;10.570;2022-10-17T12:33:36;26.00;99.90
21312;DHT22;18076;52.154;10.570;2022-10-17T12:38:43;26.00;99.90
21312;DHT22;18076;52.154;10.570;2022-10-17T12:41:09;26.10;99.90
21312;DHT22;18076;52.154;10.570;2022-10-17T12:43:36;26.20;99.90
21312;DHT22;18076;52.154;10.570;2022-10-17T12:46:06;26.20;99.90
21312;DHT22;18076;52.154;10.570;2022-10-17T12:51:07;26.40;99.90
21312;DHT22;18076;52.154;10.570;2022-10-17T12:56:21;26.20;99.90
21312;DHT22;18076;52.154;10.570;2022-10-17T12:58:56;26.10;99.90
21312;DHT22;18076;52.154;10.570;2022-10-17T13:01:26;26.10;99.90
21312;DHT22;18076;52.154;10.570;2022-10-17T13:03:55;26.10;99.90
21312;DHT22;18076;52.154;10.570;2022-10-17T13:06:21;25.90;99.90
21312;DHT22;18076;52.154;10.570;2022-10-17T13:08:49;25.60;99.90
21312;DHT22;18076;52.154;10.570;2022-10-17T13:11:21;25.20;99.90
21312;DHT22;18076;52.154;10.570;2022-10-17T13:13:48;25.00;99.90
21312;DHT22;18076;52.154;10.570;2022-10-17T13:18:52;24.60;99.90
21312;DHT22;18076;52.154;10.570;2022-10-17T13:21:17;24.50;99.90
21312;DHT22;18076;52.154;10.570;2022-10-17T13:23:43;24.40;99.90
21312;DHT22;18076;52.154;10.570;2022-10-17T13:28:38;24.40;99.90
21312;DHT22;18076;52.154;10.570;2022-10-17T13:31:03;24.30;99.90
21312;DHT22;18076;52.154;10.570;2022-10-17T13:35:55;24.10;99.90
21312;DHT22;18076;52.154;10.570;2022-10-17T13:38:22;24.10;99.90
21312;DHT22;18076;52.154;10.570;2022-10-17T13:40:48;24.00;99.90
21312;DHT22;18076;52.154;10.570;2022-10-17T13:43:15;24.00;99.90
21312;DHT22;18076;52.154;10.570;2022-10-17T13:45:44;23.90;99.90
21312;DHT22;18076;52.154;10.570;2022-10-17T13:48:17;23.90;99.90
21312;DHT22;18076;52.154;10.570;2022-10-17T13:50:44;23.90;99.90
21312;DHT22;18076;52.154;10.570;2022-10-17T13:58:42;23.80;99.90
21312;DHT22;18076;52.154;10.570;2022-10-17T14:01:08;23.80;99.90
21312;DHT22;18076;52.154;10.570;2022-10-17T14:03:35;23.80;99.90
21312;DHT22;18076;52.154;10.570;2022-10-17T14:06:19;23.80;99.90
21312;DHT22;18076;52.154;10.570;2022-10-17T14:08:53;24.00;99.90
21312;DHT22;18076;52.154;10.570;2022-10-17T14:11:24;24.00;99.90
21312;DHT22;18076;52.154;10.570;2022-10-17T14:13:51;24.00;99.90
21312;DHT22;18076;52.154;10.570;2022-10-17T14:16:17;23.80;99.90
21312;DHT22;18076;52.154;10.570;2022-10-17T14:18:44;23.70;99.90
21312;DHT22;18076;52.154;10.570;2022-10-17T14:21:14;23.80;99.90
21312;DHT22;18076;52.154;10.570;2022-10-17T14:23:42;23.70;99.90
21312;DHT22;18076;52.154;10.570;2022-10-17T14:26:12;23.80;99.90
21312;DHT22;18076;52.154;10.570;2022-10-17T14:28:39;23.80;99.90
21312;DHT22;18076;52.154;10.570;2022-10-17T14:31:16;23.90;99.90
21312;DHT22;18076;52.154;10.570;2022-10-17T14:33:43;23.90;99.90
21312;DHT22;18076;52.154;10.570;2022-10-17T14:36:09;24.10;99.90
21312;DHT22;18076;52.154;10.570;2022-10-17T14:38:35;24.10;99.90
21312;DHT22;18076;52.154;10.570;2022-10-17T14:41:02;24.20;99.90
21312;DHT22;18076;52.154;10.570;2022-10-17T14:43:30;24.20;99.90
21312;DHT22;18076;52.154;10.570;2022-10-17T14:45:57;24.20;99.90
21312;DHT22;18076;52.154;10.570;2022-10-17T14:48:24;24.20;99.90
21312;DHT22;18076;52.154;10.570;2022-10-17T14:53:36;24.10;99.90
21312;DHT22;18076;52.154;10.570;2022-10-17T14:56:03;23.90;99.90
21312;DHT22;18076;52.154;10.570;2022-10-17T14:58:31;23.80;99.90
21312;DHT22;18076;52.154;10.570;2022-10-17T15:00:57;23.80;99.90
21312;DHT22;18076;52.154;10.570;2022-10-17T15:03:23;23.70;99.90
21312;DHT22;18076;52.154;10.570;2022-10-17T15:05:49;23.60;99.90
21312;DHT22;18076;52.154;10.570;2022-10-17T15:08:16;23.60;99.90
21312;DHT22;18076;52.154;10.570;2022-10-17T15:10:43;23.60;99.90
21312;DHT22;18076;52.154;10.570;2022-10-17T15:13:09;23.60;99.90
21312;DHT22;18076;52.154;10.570;2022-10-17T15:15:36;23.60;99.90
21312;DHT22;18076;52.154;10.570;2022-10-17T15:18:02;23.50;99.90
21312;DHT22;18076;52.154;10.570;2022-10-17T15:20:27;23.40;99.90
21312;DHT22;18076;52.154;10.570;2022-10-17T15:22:58;23.30;99.90
21312;DHT22;18076;52.154;10.570;2022-10-17T15:25:24;23.30;99.90
21312;DHT22;18076;52.154;10.570;2022-10-17T15:27:51;23.30;99.90
21312;DHT22;18076;52.154;10.570;2022-10-17T15:30:27;23.30;99.90
21312;DHT22;18076;52.154;10.570;2022-10-17T15:32:53;23.20;99.90
21312;DHT22;18076;52.154;10.570;2022-10-17T15:35:18;23.20;99.90
21312;DHT22;18076;52.154;10.570;2022-10-17T15:37:44;23.10;99.90
21312;DHT22;18076;52.154;10.570;2022-10-17T15:40:17;23.10;99.90
21312;DHT22;18076;52.154;10.570;2022-10-17T15:42:43;23.00;99.90
21312;DHT22;18076;52.154;10.570;2022-10-17T15:45:09;22.90;99.90
21312;DHT22;18076;52.154;10.570;2022-10-17T15:47:35;22.90;99.90
21312;DHT22;18076;52.154;10.570;2022-10-17T15:50:02;22.80;99.90
21312;DHT22;18076;52.154;10.570;2022-10-17T15:52:27;22.70;99.90
21312;DHT22;18076;52.154;10.570;2022-10-17T15:54:53;22.70;99.90
21312;DHT22;18076;52.154;10.570;2022-10-17T15:57:20;22.60;99.90
21312;DHT22;18076;52.154;10.570;2022-10-17T15:59:45;22.50;99.90
21312;DHT22;18076;52.154;10.570;2022-10-17T16:02:12;22.50;99.90
21312;DHT22;18076;52.154;10.570;2022-10-17T16:04:38;22.50;99.90
21312;DHT22;18076;52.154;10.570;2022-10-17T16:07:04;22.40;99.90
21312;DHT22;18076;52.154;10.570;2022-10-17T16:09:29;22.30;99.90
21312;DHT22;18076;52.154;10.570;2022-10-17T16:11:55;22.20;99.90
21312;DHT22;18076;52.154;10.570;2022-10-17T16:14:20;22.10;99.90
21312;DHT22;18076;52.154;10.570;2022-10-17T16:16:46;22.10;99.90
21312;DHT22;18076;52.154;10.570;2022-10-17T16:19:11;22.00;99.90
21312;DHT22;18076;52.154;10.570;2022-10-17T16:21:38;21.90;99.90
21312;DHT22;18076;52.154;10.570;2022-10-17T16:24:04;21.90;99.90
21312;DHT22;18076;52.154;10.570;2022-10-17T16:26:33;21.90;99.90
21312;DHT22;18076;52.154;10.570;2022-10-17T16:28:58;21.80;99.90
21312;DHT22;18076;52.154;10.570;2022-10-17T16:31:32;21.80;99.90
21312;DHT22;18076;52.154;10.570;2022-10-17T16:33:58;21.80;99.90
21312;DHT22;18076;52.154;10.570;2022-10-17T16:36:24;21.70;99.90
21312;DHT22;18076;52.154;10.570;2022-10-17T16:38:50;21.70;99.90
21312;DHT22;18076;52.154;10.570;2022-10-17T16:41:20;21.60;99.90
21312;DHT22;18076;52.154;10.570;2022-10-17T16:43:46;21.60;99.90
21312;DHT22;18076;52.154;10.570;2022-10-17T16:46:12;21.60;99.90
21312;DHT22;18076;52.154;10.570;2022-10-17T16:48:37;21.60;99.90
21312;DHT22;18076;52.154;10.570;2022-10-17T16:51:03;21.60;99.90
21312;DHT22;18076;52.154;10.570;2022-10-17T16:53:29;21.60;99.90
21312;DHT22;18076;52.154;10.570;2022-10-17T16:56:00;21.60;99.90
21312;DHT22;18076;52.154;10.570;2022-10-17T16:58:27;21.60;99.90
21312;DHT22;18076;52.154;10.570;2022-10-17T17:00:55;21.60;99.90
21312;DHT22;18076;52.154;10.570;2022-10-17T17:03:20;21.50;99.90
21312;DHT22;18076;52.154;10.570;2022-10-17T17:05:49;21.50;99.90
21312;DHT22;18076;52.154;10.570;2022-10-17T17:08:15;21.50;99.90
21312;DHT22;18076;52.154;10.570;2022-10-17T17:10:44;21.50;99.90
21312;DHT22;18076;52.154;10.570;2022-10-17T17:13:10;21.60;99.90
21312;DHT22;18076;52.154;10.570;2022-10-17T17:15:36;21.60;99.90
21312;DHT22;18076;52.154;10.570;2022-10-17T17:18:03;21.50;99.90
21312;DHT22;18076;52.154;10.570;2022-10-17T17:20:28;21.50;99.90
21312;DHT22;18076;52.154;10.570;2022-10-17T17:22:54;21.40;99.90